sensor_id;sensor_type;location;lat;lon;timestamp;P1;durP1;ratioP1;P2;durP2;ratioP2
5454;SDS011;2750;49.050;9.250;2023-09-30T00:04:54;3.20;;;2.90;;
5454;SDS011;2750;49.050;9.250;2023-09-30T00:09:57;5.07;;;3.07;;
5454;SDS011;2750;49.050;9.250;2023-09-30T00:14:59;4.70;;;3.00;;
5454;SDS011;2750;49.050;9.250;2023-09-30T00:20:00;4.37;;;3.23;;
5454;SDS011;2750;49.050;9.250;2023-09-30T00:25:06;3.53;;;3.00;;
5454;SDS011;2750;49.050;9.250;2023-09-30T00:30:09;4.10;;;2.97;;
5454;SDS011;2750;49.050;9.250;2023-09-30T00:35:11;4.83;;;2.90;;
5454;SDS011;2750;49.050;9.250;2023-09-30T00:40:14;3.67;;;3.17;;
5454;SDS011;2750;49.050;9.250;2023-09-30T00:45:15;5.90;;;3.50;;
5454;SDS011;2750;49.050;9.250;2023-09-30T00:50:18;4.33;;;3.60;;
5454;SDS011;2750;49.050;9.250;2023-09-30T00:55:22;4.87;;;4.07;;
5454;SDS011;2750;49.050;9.250;2023-09-30T01:00:23;5.20;;;4.00;;
5454;SDS011;2750;49.050;9.250;2023-09-30T01:05:25;6.03;;;4.67;;
5454;SDS011;2750;49.050;9.250;2023-09-30T01:10:28;6.10;;;4.37;;
5454;SDS011;2750;49.050;9.250;2023-09-30T01:15:30;10.20;;;5.20;;
5454;SDS011;2750;49.050;9.250;2023-09-30T01:20:31;6.73;;;4.60;;
5454;SDS011;2750;49.050;9.250;2023-09-30T01:25:35;6.77;;;4.83;;
5454;SDS011;2750;49.050;9.250;2023-09-30T01:30:38;6.60;;;4.67;;
5454;SDS011;2750;49.050;9.250;2023-09-30T01:35:39;6.27;;;5.27;;
5454;SDS011;2750;49.050;9.250;2023-09-30T01:40:42;8.57;;;5.33;;
5454;SDS011;2750;49.050;9.250;2023-09-30T01:45:44;7.23;;;5.30;;
5454;SDS011;2750;49.050;9.250;2023-09-30T01:50:45;8.03;;;6.00;;
5454;SDS011;2750;49.050;9.250;2023-09-30T01:55:49;9.67;;;8.57;;
5454;SDS011;2750;49.050;9.250;2023-09-30T02:00:51;33.83;;;21.57;;
5454;SDS011;2750;49.050;9.250;2023-09-30T02:05:52;66.93;;;41.80;;
5454;SDS011;2750;49.050;9.250;2023-09-30T02:10:55;80.00;;;49.70;;
5454;SDS011;2750;49.050;9.250;2023-09-30T02:15:57;34.83;;;22.97;;
5454;SDS011;2750;49.050;9.250;2023-09-30T02:20:58;23.57;;;15.73;;
5454;SDS011;2750;49.050;9.250;2023-09-30T02:26:02;13.03;;;10.60;;
5454;SDS011;2750;49.050;9.250;2023-09-30T02:31:03;10.27;;;6.90;;
5454;SDS011;2750;49.050;9.250;2023-09-30T02:36:07;10.10;;;6.77;;
5454;SDS011;2750;49.050;9.250;2023-09-30T02:41:10;8.07;;;6.30;;
5454;SDS011;2750;49.050;9.250;2023-09-30T02:46:12;8.10;;;6.20;;
5454;SDS011;2750;49.050;9.250;2023-09-30T02:51:13;6.63;;;5.07;;
5454;SDS011;2750;49.050;9.250;2023-09-30T02:56:16;6.47;;;5.87;;
5454;SDS011;2750;49.050;9.250;2023-09-30T03:01:19;9.03;;;5.97;;
5454;SDS011;2750;49.050;9.250;2023-09-30T03:06:20;10.97;;;5.87;;
5454;SDS011;2750;49.050;9.250;2023-09-30T03:11:23;10.70;;;7.20;;
5454;SDS011;2750;49.050;9.250;2023-09-30T03:16:25;9.70;;;6.70;;
5454;SDS011;2750;49.050;9.250;2023-09-30T03:21:26;7.40;;;6.30;;
5454;SDS011;2750;49.050;9.250;2023-09-30T03:26:29;8.90;;;7.57;;
5454;SDS011;2750;49.050;9.250;2023-09-30T03:31:31;8.63;;;6.67;;
5454;SDS011;2750;49.050;9.250;2023-09-30T03:36:33;8.33;;;6.50;;
5454;SDS011;2750;49.050;9.250;2023-09-30T03:41:37;9.47;;;7.27;;
5454;SDS011;2750;49.050;9.250;2023-09-30T03:46:39;11.07;;;8.77;;
5454;SDS011;2750;49.050;9.250;2023-09-30T03:51:40;11.20;;;8.87;;
5454;SDS011;2750;49.050;9.250;2023-09-30T03:56:43;11.27;;;9.70;;
5454;SDS011;2750;49.050;9.250;2023-09-30T04:01:45;11.73;;;9.43;;
5454;SDS011;2750;49.050;9.250;2023-09-30T04:06:47;14.00;;;8.57;;
5454;SDS011;2750;49.050;9.250;2023-09-30T04:11:52;12.57;;;10.17;;
5454;SDS011;2750;49.050;9.250;2023-09-30T04:16:54;12.93;;;9.90;;
5454;SDS011;2750;49.050;9.250;2023-09-30T04:21:55;13.67;;;9.43;;
5454;SDS011;2750;49.050;9.250;2023-09-30T04:26:58;11.70;;;9.50;;
5454;SDS011;2750;49.050;9.250;2023-09-30T04:32:03;12.87;;;9.33;;
5454;SDS011;2750;49.050;9.250;2023-09-30T04:37:06;10.17;;;7.93;;
5454;SDS011;2750;49.050;9.250;2023-09-30T04:42:10;12.07;;;7.27;;
5454;SDS011;2750;49.050;9.250;2023-09-30T04:47:12;12.43;;;8.10;;
5454;SDS011;2750;49.050;9.250;2023-09-30T04:52:13;13.57;;;8.60;;
5454;SDS011;2750;49.050;9.250;2023-09-30T04:57:16;16.93;;;8.60;;
5454;SDS011;2750;49.050;9.250;2023-09-30T05:02:19;13.10;;;8.33;;
5454;SDS011;2750;49.050;9.250;2023-09-30T05:07:20;11.13;;;7.70;;
5454;SDS011;2750;49.050;9.250;2023-09-30T05:12:24;14.73;;;8.77;;
5454;SDS011;2750;49.050;9.250;2023-09-30T05:17:25;12.50;;;7.57;;
5454;SDS011;2750;49.050;9.250;2023-09-30T05:22:28;11.63;;;9.00;;
5454;SDS011;2750;49.050;9.250;2023-09-30T05:27:31;14.77;;;10.27;;
5454;SDS011;2750;49.050;9.250;2023-09-30T05:32:33;10.53;;;7.77;;
5454;SDS011;2750;49.050;9.250;2023-09-30T05:37:34;13.97;;;9.00;;
5454;SDS011;2750;49.050;9.250;2023-09-30T05:42:38;11.97;;;9.07;;
5454;SDS011;2750;49.050;9.250;2023-09-30T05:47:39;11.10;;;9.63;;
5454;SDS011;2750;49.050;9.250;2023-09-30T05:52:41;12.57;;;10.03;;
5454;SDS011;2750;49.050;9.250;2023-09-30T05:57:46;15.03;;;9.30;;
5454;SDS011;2750;49.050;9.250;2023-09-30T06:02:48;11.73;;;8.80;;
5454;SDS011;2750;49.050;9.250;2023-09-30T06:07:51;13.30;;;9.70;;
5454;SDS011;2750;49.050;9.250;2023-09-30T06:12:55;14.60;;;9.50;;
5454;SDS011;2750;49.050;9.250;2023-09-30T06:17:58;13.20;;;8.93;;
5454;SDS011;2750;49.050;9.250;2023-09-30T06:23:00;11.33;;;9.40;;
5454;SDS011;2750;49.050;9.250;2023-09-30T06:28:03;10.80;;;7.37;;
5454;SDS011;2750;49.050;9.250;2023-09-30T06:33:04;12.87;;;9.10;;
5454;SDS011;2750;49.050;9.250;2023-09-30T06:38:07;10.20;;;7.07;;
5454;SDS011;2750;49.050;9.250;2023-09-30T06:43:10;7.97;;;7.17;;
5454;SDS011;2750;49.050;9.250;2023-09-30T06:48:12;14.53;;;7.50;;
5454;SDS011;2750;49.050;9.250;2023-09-30T06:53:14;10.43;;;7.23;;
5454;SDS011;2750;49.050;9.250;2023-09-30T06:58:17;10.83;;;7.13;;
5454;SDS011;2750;49.050;9.250;2023-09-30T07:03:21;9.67;;;6.40;;
5454;SDS011;2750;49.050;9.250;2023-09-30T07:08:22;7.70;;;6.90;;
5454;SDS011;2750;49.050;9.250;2023-09-30T07:13:25;11.87;;;8.80;;
5454;SDS011;2750;49.050;9.250;2023-09-30T07:18:27;9.83;;;8.77;;
5454;SDS011;2750;49.050;9.250;2023-09-30T07:23:29;10.43;;;9.30;;
5454;SDS011;2750;49.050;9.250;2023-09-30T07:28:33;8.87;;;7.53;;
5454;SDS011;2750;49.050;9.250;2023-09-30T07:33:35;8.60;;;6.93;;
5454;SDS011;2750;49.050;9.250;2023-09-30T07:38:37;10.53;;;7.23;;
5454;SDS011;2750;49.050;9.250;2023-09-30T07:43:39;10.07;;;7.38;;
5454;SDS011;2750;49.050;9.250;2023-09-30T07:48:41;8.68;;;6.43;;
5454;SDS011;2750;49.050;9.250;2023-09-30T07:53:43;10.50;;;7.45;;
5454;SDS011;2750;49.050;9.250;2023-09-30T07:58:46;10.93;;;6.82;;
5454;SDS011;2750;49.050;9.250;2023-09-30T08:03:47;11.07;;;7.05;;
5454;SDS011;2750;49.050;9.250;2023-09-30T08:08:49;8.90;;;7.83;;
5454;SDS011;2750;49.050;9.250;2023-09-30T08:13:52;8.70;;;6.43;;
5454;SDS011;2750;49.050;9.250;2023-09-30T08:18:53;9.75;;;7.18;;
5454;SDS011;2750;49.050;9.250;2023-09-30T08:23:55;10.75;;;6.95;;
5454;SDS011;2750;49.050;9.250;2023-09-30T08:28:58;7.30;;;5.25;;
5454;SDS011;2750;49.050;9.250;2023-09-30T08:33:59;7.43;;;5.60;;
5454;SDS011;2750;49.050;9.250;2023-09-30T08:39:04;9.57;;;6.50;;
5454;SDS011;2750;49.050;9.250;2023-09-30T08:44:06;8.48;;;6.13;;
5454;SDS011;2750;49.050;9.250;2023-09-30T08:49:09;8.02;;;5.25;;
5454;SDS011;2750;49.050;9.250;2023-09-30T08:54:14;8.55;;;5.65;;
5454;SDS011;2750;49.050;9.250;2023-09-30T08:59:17;10.93;;;5.97;;
5454;SDS011;2750;49.050;9.250;2023-09-30T09:04:18;8.13;;;5.45;;
5454;SDS011;2750;49.050;9.250;2023-09-30T09:09:20;9.00;;;5.43;;
5454;SDS011;2750;49.050;9.250;2023-09-30T09:14:37;9.82;;;5.68;;
5454;SDS011;2750;49.050;9.250;2023-09-30T09:19:39;11.33;;;6.50;;
5454;SDS011;2750;49.050;9.250;2023-09-30T09:24:41;10.82;;;6.07;;
5454;SDS011;2750;49.050;9.250;2023-09-30T09:29:44;7.97;;;5.10;;
5454;SDS011;2750;49.050;9.250;2023-09-30T09:34:47;8.95;;;5.35;;
5454;SDS011;2750;49.050;9.250;2023-09-30T09:40:01;6.45;;;5.15;;
5454;SDS011;2750;49.050;9.250;2023-09-30T09:45:06;9.70;;;5.38;;
5454;SDS011;2750;49.050;9.250;2023-09-30T09:50:09;7.95;;;5.15;;
5454;SDS011;2750;49.050;9.250;2023-09-30T09:55:11;8.95;;;5.78;;
5454;SDS011;2750;49.050;9.250;2023-09-30T10:00:17;10.30;;;6.35;;
5454;SDS011;2750;49.050;9.250;2023-09-30T10:05:20;7.97;;;5.95;;
5454;SDS011;2750;49.050;9.250;2023-09-30T10:10:23;7.55;;;5.95;;
5454;SDS011;2750;49.050;9.250;2023-09-30T10:15:37;8.23;;;6.53;;
5454;SDS011;2750;49.050;9.250;2023-09-30T10:20:41;9.13;;;7.93;;
5454;SDS011;2750;49.050;9.250;2023-09-30T10:25:45;8.63;;;6.30;;
5454;SDS011;2750;49.050;9.250;2023-09-30T10:36:13;8.38;;;5.60;;
5454;SDS011;2750;49.050;9.250;2023-09-30T10:46:54;7.47;;;5.43;;
5454;SDS011;2750;49.050;9.250;2023-09-30T10:51:57;5.85;;;4.60;;
5454;SDS011;2750;49.050;9.250;2023-09-30T10:57:00;6.50;;;4.65;;
5454;SDS011;2750;49.050;9.250;2023-09-30T11:02:05;9.05;;;5.50;;
5454;SDS011;2750;49.050;9.250;2023-09-30T11:07:21;8.38;;;4.63;;
5454;SDS011;2750;49.050;9.250;2023-09-30T11:12:24;7.80;;;4.95;;
5454;SDS011;2750;49.050;9.250;2023-09-30T11:17:28;9.48;;;5.50;;
5454;SDS011;2750;49.050;9.250;2023-09-30T11:22:30;8.55;;;5.32;;
5454;SDS011;2750;49.050;9.250;2023-09-30T11:27:31;9.38;;;5.28;;
5454;SDS011;2750;49.050;9.250;2023-09-30T11:32:34;7.53;;;5.32;;
5454;SDS011;2750;49.050;9.250;2023-09-30T11:37:36;9.98;;;5.88;;
5454;SDS011;2750;49.050;9.250;2023-09-30T11:42:38;8.13;;;4.80;;
5454;SDS011;2750;49.050;9.250;2023-09-30T11:47:41;7.53;;;5.05;;
5454;SDS011;2750;49.050;9.250;2023-09-30T11:52:46;7.90;;;4.95;;
5454;SDS011;2750;49.050;9.250;2023-09-30T11:57:48;8.10;;;5.30;;
5454;SDS011;2750;49.050;9.250;2023-09-30T12:02:51;8.10;;;4.88;;
5454;SDS011;2750;49.050;9.250;2023-09-30T12:07:53;7.83;;;4.97;;
5454;SDS011;2750;49.050;9.250;2023-09-30T12:12:55;6.73;;;5.10;;
5454;SDS011;2750;49.050;9.250;2023-09-30T12:17:58;9.00;;;5.60;;
5454;SDS011;2750;49.050;9.250;2023-09-30T12:22:59;9.43;;;4.17;;
5454;SDS011;2750;49.050;9.250;2023-09-30T12:28:01;7.07;;;5.20;;
5454;SDS011;2750;49.050;9.250;2023-09-30T12:33:04;8.13;;;5.47;;
5454;SDS011;2750;49.050;9.250;2023-09-30T12:38:06;7.78;;;4.90;;
5454;SDS011;2750;49.050;9.250;2023-09-30T12:43:08;8.45;;;5.57;;
5454;SDS011;2750;49.050;9.250;2023-09-30T12:48:11;10.50;;;5.53;;
5454;SDS011;2750;49.050;9.250;2023-09-30T12:53:13;10.48;;;5.63;;
5454;SDS011;2750;49.050;9.250;2023-09-30T12:58:15;8.13;;;5.70;;
5454;SDS011;2750;49.050;9.250;2023-09-30T13:03:18;8.80;;;5.25;;
5454;SDS011;2750;49.050;9.250;2023-09-30T13:08:19;8.23;;;4.85;;
5454;SDS011;2750;49.050;9.250;2023-09-30T13:13:21;8.60;;;5.40;;
5454;SDS011;2750;49.050;9.250;2023-09-30T13:18:24;10.48;;;5.75;;
5454;SDS011;2750;49.050;9.250;2023-09-30T13:23:25;8.73;;;5.88;;
5454;SDS011;2750;49.050;9.250;2023-09-30T13:28:27;9.80;;;5.32;;
5454;SDS011;2750;49.050;9.250;2023-09-30T13:33:30;10.00;;;5.93;;
5454;SDS011;2750;49.050;9.250;2023-09-30T13:38:32;10.05;;;6.93;;
5454;SDS011;2750;49.050;9.250;2023-09-30T13:43:34;11.23;;;5.97;;
5454;SDS011;2750;49.050;9.250;2023-09-30T13:48:36;7.93;;;5.88;;
5454;SDS011;2750;49.050;9.250;2023-09-30T13:53:38;7.90;;;5.43;;
5454;SDS011;2750;49.050;9.250;2023-09-30T13:58:40;10.40;;;6.07;;
5454;SDS011;2750;49.050;9.250;2023-09-30T14:03:43;8.82;;;6.22;;
5454;SDS011;2750;49.050;9.250;2023-09-30T14:08:47;9.00;;;6.63;;
5454;SDS011;2750;49.050;9.250;2023-09-30T14:13:48;10.20;;;6.60;;
5454;SDS011;2750;49.050;9.250;2023-09-30T14:18:51;10.25;;;6.40;;
5454;SDS011;2750;49.050;9.250;2023-09-30T14:23:53;11.52;;;6.72;;
5454;SDS011;2750;49.050;9.250;2023-09-30T14:28:55;9.98;;;6.47;;
5454;SDS011;2750;49.050;9.250;2023-09-30T14:33:58;10.98;;;6.18;;
5454;SDS011;2750;49.050;9.250;2023-09-30T14:38:59;10.90;;;7.32;;
5454;SDS011;2750;49.050;9.250;2023-09-30T14:44:01;11.90;;;8.53;;
5454;SDS011;2750;49.050;9.250;2023-09-30T14:49:08;9.53;;;6.73;;
5454;SDS011;2750;49.050;9.250;2023-09-30T14:54:10;10.53;;;6.53;;
5454;SDS011;2750;49.050;9.250;2023-09-30T14:59:12;9.53;;;6.10;;
5454;SDS011;2750;49.050;9.250;2023-09-30T15:04:15;13.07;;;7.87;;
5454;SDS011;2750;49.050;9.250;2023-09-30T15:09:17;8.43;;;6.40;;
5454;SDS011;2750;49.050;9.250;2023-09-30T15:14:18;8.13;;;6.15;;
5454;SDS011;2750;49.050;9.250;2023-09-30T15:19:21;8.30;;;6.15;;
5454;SDS011;2750;49.050;9.250;2023-09-30T15:24:23;10.03;;;6.43;;
5454;SDS011;2750;49.050;9.250;2023-09-30T15:29:24;7.80;;;5.97;;
5454;SDS011;2750;49.050;9.250;2023-09-30T15:34:27;12.10;;;6.67;;
5454;SDS011;2750;49.050;9.250;2023-09-30T15:39:30;12.20;;;7.33;;
5454;SDS011;2750;49.050;9.250;2023-09-30T15:44:38;8.93;;;6.10;;
5454;SDS011;2750;49.050;9.250;2023-09-30T15:49:42;11.63;;;7.20;;
5454;SDS011;2750;49.050;9.250;2023-09-30T15:54:43;11.03;;;6.47;;
5454;SDS011;2750;49.050;9.250;2023-09-30T15:59:45;10.40;;;7.40;;
5454;SDS011;2750;49.050;9.250;2023-09-30T16:04:48;9.87;;;6.40;;
5454;SDS011;2750;49.050;9.250;2023-09-30T16:09:50;10.43;;;6.83;;
5454;SDS011;2750;49.050;9.250;2023-09-30T16:14:52;12.37;;;8.20;;
5454;SDS011;2750;49.050;9.250;2023-09-30T16:19:54;15.93;;;7.70;;
5454;SDS011;2750;49.050;9.250;2023-09-30T16:24:56;11.10;;;7.27;;
5454;SDS011;2750;49.050;9.250;2023-09-30T16:29:58;9.60;;;6.00;;
5454;SDS011;2750;49.050;9.250;2023-09-30T16:35:01;14.30;;;7.23;;
5454;SDS011;2750;49.050;9.250;2023-09-30T16:40:03;10.87;;;7.17;;
5454;SDS011;2750;49.050;9.250;2023-09-30T16:45:07;11.60;;;7.17;;
5454;SDS011;2750;49.050;9.250;2023-09-30T16:50:11;9.73;;;6.07;;
5454;SDS011;2750;49.050;9.250;2023-09-30T16:55:12;10.90;;;7.10;;
5454;SDS011;2750;49.050;9.250;2023-09-30T17:00:14;11.93;;;7.00;;
5454;SDS011;2750;49.050;9.250;2023-09-30T17:05:17;12.07;;;6.37;;
5454;SDS011;2750;49.050;9.250;2023-09-30T17:10:19;10.63;;;6.53;;
5454;SDS011;2750;49.050;9.250;2023-09-30T17:15:21;10.60;;;6.90;;
5454;SDS011;2750;49.050;9.250;2023-09-30T17:20:23;13.10;;;6.90;;
5454;SDS011;2750;49.050;9.250;2023-09-30T17:25:26;14.80;;;7.03;;
5454;SDS011;2750;49.050;9.250;2023-09-30T17:30:28;13.53;;;7.73;;
5454;SDS011;2750;49.050;9.250;2023-09-30T17:35:31;10.77;;;6.37;;
5454;SDS011;2750;49.050;9.250;2023-09-30T17:40:37;13.80;;;8.43;;
5454;SDS011;2750;49.050;9.250;2023-09-30T17:45:39;15.97;;;8.33;;
5454;SDS011;2750;49.050;9.250;2023-09-30T17:50:42;13.07;;;7.30;;
5454;SDS011;2750;49.050;9.250;2023-09-30T17:55:43;12.50;;;6.93;;
5454;SDS011;2750;49.050;9.250;2023-09-30T18:00:47;11.97;;;7.10;;
5454;SDS011;2750;49.050;9.250;2023-09-30T18:05:50;12.07;;;7.63;;
5454;SDS011;2750;49.050;9.250;2023-09-30T18:10:52;10.13;;;6.77;;
5454;SDS011;2750;49.050;9.250;2023-09-30T18:15:56;10.50;;;7.47;;
5454;SDS011;2750;49.050;9.250;2023-09-30T18:20:59;13.50;;;8.53;;
5454;SDS011;2750;49.050;9.250;2023-09-30T18:26:01;16.33;;;11.03;;
5454;SDS011;2750;49.050;9.250;2023-09-30T18:31:02;12.63;;;10.33;;
5454;SDS011;2750;49.050;9.250;2023-09-30T18:36:08;17.33;;;11.43;;
5454;SDS011;2750;49.050;9.250;2023-09-30T18:41:11;20.10;;;10.80;;
5454;SDS011;2750;49.050;9.250;2023-09-30T18:46:14;15.10;;;8.10;;
5454;SDS011;2750;49.050;9.250;2023-09-30T18:51:19;14.00;;;7.53;;
5454;SDS011;2750;49.050;9.250;2023-09-30T18:56:21;10.97;;;7.30;;
5454;SDS011;2750;49.050;9.250;2023-09-30T19:01:23;12.03;;;7.20;;
5454;SDS011;2750;49.050;9.250;2023-09-30T19:06:26;16.47;;;9.27;;
5454;SDS011;2750;49.050;9.250;2023-09-30T19:11:28;21.67;;;14.50;;
5454;SDS011;2750;49.050;9.250;2023-09-30T19:16:30;15.27;;;11.43;;
5454;SDS011;2750;49.050;9.250;2023-09-30T19:21:33;11.33;;;7.67;;
5454;SDS011;2750;49.050;9.250;2023-09-30T19:26:35;13.33;;;8.27;;
5454;SDS011;2750;49.050;9.250;2023-09-30T19:31:36;13.33;;;8.77;;
5454;SDS011;2750;49.050;9.250;2023-09-30T19:36:39;13.73;;;9.27;;
5454;SDS011;2750;49.050;9.250;2023-09-30T19:41:41;18.63;;;10.93;;
5454;SDS011;2750;49.050;9.250;2023-09-30T19:46:42;18.30;;;13.50;;
5454;SDS011;2750;49.050;9.250;2023-09-30T19:51:45;20.77;;;13.87;;
5454;SDS011;2750;49.050;9.250;2023-09-30T19:56:48;19.30;;;13.93;;
5454;SDS011;2750;49.050;9.250;2023-09-30T20:01:49;19.93;;;12.67;;
5454;SDS011;2750;49.050;9.250;2023-09-30T20:06:54;17.10;;;10.87;;
5454;SDS011;2750;49.050;9.250;2023-09-30T20:11:55;11.67;;;10.17;;
5454;SDS011;2750;49.050;9.250;2023-09-30T20:17:02;14.77;;;9.60;;
5454;SDS011;2750;49.050;9.250;2023-09-30T20:22:05;15.10;;;9.63;;
5454;SDS011;2750;49.050;9.250;2023-09-30T20:27:07;13.13;;;8.87;;
5454;SDS011;2750;49.050;9.250;2023-09-30T20:32:10;14.77;;;9.37;;
5454;SDS011;2750;49.050;9.250;2023-09-30T20:37:12;14.77;;;9.10;;
5454;SDS011;2750;49.050;9.250;2023-09-30T20:42:14;12.23;;;8.57;;
5454;SDS011;2750;49.050;9.250;2023-09-30T20:47:17;16.97;;;10.10;;
5454;SDS011;2750;49.050;9.250;2023-09-30T20:52:20;16.43;;;9.97;;
5454;SDS011;2750;49.050;9.250;2023-09-30T20:57:21;14.47;;;11.10;;
5454;SDS011;2750;49.050;9.250;2023-09-30T21:02:23;14.93;;;9.83;;
5454;SDS011;2750;49.050;9.250;2023-09-30T21:07:26;18.33;;;10.47;;
5454;SDS011;2750;49.050;9.250;2023-09-30T21:12:28;14.60;;;10.07;;
5454;SDS011;2750;49.050;9.250;2023-09-30T21:17:29;14.70;;;9.80;;
5454;SDS011;2750;49.050;9.250;2023-09-30T21:22:32;14.50;;;9.87;;
5454;SDS011;2750;49.050;9.250;2023-09-30T21:27:34;11.13;;;7.90;;
5454;SDS011;2750;49.050;9.250;2023-09-30T21:32:35;15.17;;;8.67;;
5454;SDS011;2750;49.050;9.250;2023-09-30T21:37:39;12.60;;;7.73;;
5454;SDS011;2750;49.050;9.250;2023-09-30T21:42:41;12.73;;;8.10;;
5454;SDS011;2750;49.050;9.250;2023-09-30T21:47:42;11.37;;;7.50;;
5454;SDS011;2750;49.050;9.250;2023-09-30T21:52:45;13.77;;;8.70;;
5454;SDS011;2750;49.050;9.250;2023-09-30T21:57:49;12.97;;;8.30;;
5454;SDS011;2750;49.050;9.250;2023-09-30T22:02:50;16.80;;;9.43;;
5454;SDS011;2750;49.050;9.250;2023-09-30T22:07:54;14.53;;;8.47;;
5454;SDS011;2750;49.050;9.250;2023-09-30T22:12:56;15.33;;;8.43;;
5454;SDS011;2750;49.050;9.250;2023-09-30T22:17:57;13.87;;;8.43;;
5454;SDS011;2750;49.050;9.250;2023-09-30T22:23:00;13.43;;;8.20;;
5454;SDS011;2750;49.050;9.250;2023-09-30T22:28:02;12.40;;;7.77;;
5454;SDS011;2750;49.050;9.250;2023-09-30T22:33:05;12.03;;;8.10;;
5454;SDS011;2750;49.050;9.250;2023-09-30T22:38:08;14.33;;;8.80;;
5454;SDS011;2750;49.050;9.250;2023-09-30T22:43:09;13.70;;;9.33;;
5454;SDS011;2750;49.050;9.250;2023-09-30T22:48:11;12.73;;;7.87;;
5454;SDS011;2750;49.050;9.250;2023-09-30T22:53:14;13.47;;;8.40;;
5454;SDS011;2750;49.050;9.250;2023-09-30T22:58:15;16.27;;;10.40;;
5454;SDS011;2750;49.050;9.250;2023-09-30T23:03:17;14.67;;;9.17;;
5454;SDS011;2750;49.050;9.250;2023-09-30T23:08:20;14.73;;;9.97;;
5454;SDS011;2750;49.050;9.250;2023-09-30T23:13:21;18.20;;;10.53;;
5454;SDS011;2750;49.050;9.250;2023-09-30T23:18:23;18.03;;;12.07;;
5454;SDS011;2750;49.050;9.250;2023-09-30T23:23:26;17.47;;;11.30;;
5454;SDS011;2750;49.050;9.250;2023-09-30T23:28:27;15.50;;;9.83;;
5454;SDS011;2750;49.050;9.250;2023-09-30T23:33:34;16.67;;;10.13;;
5454;SDS011;2750;49.050;9.250;2023-09-30T23:38:39;19.30;;;10.83;;
5454;SDS011;2750;49.050;9.250;2023-09-30T23:43:44;15.70;;;10.70;;
5454;SDS011;2750;49.050;9.250;2023-09-30T23:48:46;15.60;;;10.97;;
5454;SDS011;2750;49.050;9.250;2023-09-30T23:53:49;18.07;;;10.27;;
5454;SDS011;2750;49.050;9.250;2023-09-30T23:58:50;16.80;;;10.70;;
